Time;durP1;ratioP1;P1;durP2;ratioP2;P2;SDS_P1;SDS_P2;PMS_P1;PMS_P2;Temp;Humidity;BMP_temperature;BMP_pressure;BME280_temperature;BME280_humidity;BME280_pressure;Samples;Min_cycle;Max_cycle;Signal;HPM_P1;HPM_P2
2022/10/05 00:00:20;;;;;;;11.23;8.75;;;15.50;99.90;;;;;;4917149;28;20039;-76
2022/10/05 00:02:51;;;;;;;12.52;8.45;;;15.50;99.90;;;;;;4918012;29;20056;-76
2022/10/05 00:05:16;;;;;;;;;;;15.50;99.90;;;;;;4935431;29;20102;-76
2022/10/05 00:07:42;;;;;;;9.80;8.45;;;15.50;99.90;;;;;;4921192;29;20449;-76
2022/10/05 00:10:14;;;;;;;11.70;8.85;;;15.50;99.90;;;;;;4912768;29;20478;-77
2022/10/05 00:12:44;;;;;;;11.20;8.77;;;15.50;99.90;;;;;;4903433;29;20043;-77
2022/10/05 00:15:13;;;;;;;11.85;9.05;;;15.50;99.90;;;;;;4929644;28;20114;-77
2022/10/05 00:17:40;;;;;;;11.45;8.55;;;15.50;99.90;;;;;;4909599;29;20047;-77
2022/10/05 00:20:22;;;;;;;11.10;8.57;;;15.50;99.90;;;;;;4930344;29;20548;-77
2022/10/05 00:22:50;;;;;;;9.15;7.90;;;15.50;99.90;;;;;;4943394;28;20043;-77
2022/10/05 00:25:19;;;;;;;9.13;7.85;;;15.50;99.90;;;;;;4925736;28;20454;-77
2022/10/05 00:27:54;;;;;;;9.10;7.15;;;15.40;99.90;;;;;;4934911;29;20367;-77
2022/10/05 00:30:21;;;;;;;8.55;7.05;;;15.40;99.90;;;;;;4927944;29;20047;-76
2022/10/05 00:32:47;;;;;;;10.45;7.57;;;15.50;99.90;;;;;;4934661;29;20051;-76
2022/10/05 00:35:14;;;;;;;9.70;7.35;;;15.40;99.90;;;;;;4926106;29;20097;-77
2022/10/05 00:37:40;;;;;;;10.93;6.68;;;15.50;99.90;;;;;;4916555;28;20077;-76
2022/10/05 00:40:33;;;;;;;8.68;6.82;;;15.40;99.90;;;;;;4935637;29;20059;-75
2022/10/05 00:43:14;;;;;;;9.02;6.93;;;15.50;99.90;;;;;;4923465;28;20047;-76
2022/10/05 00:46:14;;;;;;;9.18;6.43;;;15.50;99.90;;;;;;4922208;29;20126;-76
2022/10/05 00:48:46;;;;;;;9.80;6.97;;;15.50;99.90;;;;;;4902207;29;20632;-76
2022/10/05 00:51:20;;;;;;;10.45;6.60;;;15.50;99.90;;;;;;4929845;29;20058;-75
2022/10/05 00:54:11;;;;;;;8.57;7.10;;;15.40;99.90;;;;;;4930111;29;20059;-75
2022/10/05 00:56:58;;;;;;;10.80;6.85;;;15.50;99.90;;;;;;4914405;29;20051;-75
2022/10/05 00:59:23;;;;;;;8.68;6.20;;;15.40;99.90;;;;;;4942270;29;20058;-75
2022/10/05 01:02:14;;;;;;;7.80;6.57;;;15.40;99.90;;;;;;4917918;29;20046;-75
2022/10/05 01:04:52;;;;;;;8.55;6.43;;;15.40;99.90;;;;;;4913925;29;20059;-76
2022/10/05 01:07:27;;;;;;;9.38;6.70;;;15.40;99.90;;;;;;4931633;29;20501;-75
2022/10/05 01:10:23;;;;;;;7.93;6.95;;;15.40;99.90;;;;;;4937161;29;20102;-75
2022/10/05 01:12:52;;;;;;;8.88;6.95;;;15.40;99.90;;;;;;4926861;28;20460;-76
2022/10/05 01:15:54;;;;;;;11.10;7.18;;;15.40;99.90;;;;;;4910488;29;20137;-76
2022/10/05 01:18:41;;;;;;;7.15;6.13;;;15.40;99.90;;;;;;4921957;29;20138;-76
2022/10/05 01:21:20;;;;;;;8.13;6.50;;;15.40;99.90;;;;;;4929710;29;20090;-75
2022/10/05 01:24:04;;;;;;;8.25;7.07;;;15.40;99.90;;;;;;4929017;29;20047;-76
2022/10/05 01:26:49;;;;;;;8.20;7.40;;;15.40;99.90;;;;;;4931501;28;20047;-75
2022/10/05 01:29:28;;;;;;;10.18;7.40;;;15.40;99.90;;;;;;4944716;28;20134;-76
2022/10/05 01:32:03;;;;;;;11.77;8.13;;;15.40;99.90;;;;;;4935072;29;20486;-76
2022/10/05 01:34:45;;;;;;;10.57;7.93;;;15.40;99.90;;;;;;4928101;29;20325;-74
2022/10/05 01:37:44;;;;;;;10.35;7.95;;;15.40;99.90;;;;;;4929327;28;20106;-75
2022/10/05 01:40:28;;;;;;;9.82;8.20;;;15.40;99.90;;;;;;4935562;28;20518;-77
2022/10/05 01:43:31;;;;;;;9.60;8.55;;;15.40;99.90;;;;;;4918325;29;20039;-77
2022/10/05 01:46:18;;;;;;;11.02;8.18;;;15.40;99.90;;;;;;4916093;29;20102;-77
2022/10/05 01:48:59;;;;;;;10.65;8.73;;;15.30;99.90;;;;;;4927848;28;20043;-76
2022/10/05 01:51:45;;;;;;;11.30;8.63;;;15.30;99.90;;;;;;4927002;29;20051;-76
2022/10/05 01:54:36;;;;;;;11.02;8.80;;;15.30;99.90;;;;;;4912280;29;20051;-77
2022/10/05 01:57:26;;;;;;;9.88;8.27;;;15.40;99.90;;;;;;4924989;29;20471;-77
2022/10/05 02:00:09;;;;;;;10.20;8.60;;;15.30;99.90;;;;;;4913946;29;20052;-77
2022/10/05 02:02:55;;;;;;;11.50;9.13;;;15.30;99.90;;;;;;4926126;29;20047;-77
2022/10/05 02:05:26;;;;;;;10.18;9.05;;;15.30;99.90;;;;;;4909976;29;20086;-77
2022/10/05 02:08:02;;;;;;;11.20;8.55;;;15.30;99.90;;;;;;4913126;29;20079;-77
2022/10/05 02:10:35;;;;;;;9.88;8.88;;;15.30;99.90;;;;;;4923242;29;20043;-77
2022/10/05 02:13:25;;;;;;;13.73;9.95;;;15.30;99.90;;;;;;4924990;29;20122;-76
2022/10/05 02:15:58;;;;;;;11.88;9.90;;;15.30;99.90;;;;;;4926086;29;20094;-76
2022/10/05 02:18:32;;;;;;;12.38;9.80;;;15.30;99.90;;;;;;4923060;29;20048;-76
2022/10/05 02:21:04;;;;;;;10.70;9.60;;;15.30;99.90;;;;;;4915426;29;20031;-76
2022/10/05 02:23:34;;;;;;;14.50;10.10;;;15.30;99.90;;;;;;4912139;28;20043;-76
2022/10/05 02:26:01;;;;;;;12.00;10.13;;;15.20;99.90;;;;;;4929406;29;20050;-76
2022/10/05 02:28:41;;;;;;;12.70;9.68;;;15.20;99.90;;;;;;4926672;29;20082;-76
2022/10/05 02:31:11;;;;;;;11.73;10.07;;;15.20;99.90;;;;;;4924547;29;20517;-76
2022/10/05 02:33:37;;;;;;;12.90;10.55;;;15.20;99.90;;;;;;4928709;29;20051;-76
2022/10/05 02:36:14;;;;;;;11.85;10.07;;;15.20;99.90;;;;;;4912148;29;20554;-76
2022/10/05 02:39:05;;;;;;;12.52;10.38;;;15.20;99.90;;;;;;4930104;29;20154;-76
2022/10/05 02:41:30;;;;;;;;;;;15.20;99.90;;;;;;4927061;29;20050;-76
2022/10/05 02:44:02;;;;;;;11.70;9.88;;;15.10;99.90;;;;;;4927408;28;20410;-76
2022/10/05 02:46:43;;;;;;;12.57;10.63;;;15.10;99.90;;;;;;4925035;29;20051;-76
2022/10/05 02:49:19;;;;;;;12.02;9.52;;;15.10;99.90;;;;;;4941373;28;20080;-76
2022/10/05 02:52:06;;;;;;;12.85;10.13;;;15.10;99.90;;;;;;4928961;29;20398;-76
2022/10/05 02:55:02;;;;;;;12.15;10.25;;;15.10;99.90;;;;;;4934705;28;20110;-76
2022/10/05 02:57:36;;;;;;;11.18;10.07;;;15.10;99.90;;;;;;4914934;29;20143;-76
2022/10/05 03:00:13;;;;;;;12.95;10.45;;;15.10;99.90;;;;;;4921589;29;20115;-76
2022/10/05 03:02:45;;;;;;;11.07;9.95;;;15.10;99.90;;;;;;4928379;29;20043;-76
2022/10/05 03:05:32;;;;;;;10.68;9.15;;;15.10;99.90;;;;;;4917687;29;20051;-76
2022/10/05 03:08:37;;;;;;;10.95;9.52;;;15.10;99.90;;;;;;4916824;29;20036;-76
2022/10/05 03:11:14;;;;;;;11.80;9.45;;;15.10;99.90;;;;;;4897437;28;20054;-76
2022/10/05 03:14:01;;;;;;;12.18;10.40;;;15.10;99.90;;;;;;4927024;29;20047;-76
2022/10/05 03:16:45;;;;;;;11.93;9.82;;;15.10;99.90;;;;;;4946540;28;20139;-76
2022/10/05 03:19:26;;;;;;;9.82;8.80;;;15.10;99.90;;;;;;4923887;29;20083;-76
2022/10/05 03:21:56;;;;;;;10.77;9.50;;;15.10;99.90;;;;;;4927848;29;20411;-75
2022/10/05 03:24:34;;;;;;;11.70;8.52;;;15.10;99.90;;;;;;4925593;29;20035;-75
2022/10/05 03:27:11;;;;;;;10.73;8.95;;;15.10;99.90;;;;;;4923628;29;20439;-76
2022/10/05 03:29:54;;;;;;;9.88;8.23;;;15.10;99.90;;;;;;4909612;28;20172;-75
2022/10/05 03:32:38;;;;;;;9.43;8.30;;;15.10;99.90;;;;;;4927450;29;20047;-76
2022/10/05 03:35:28;;;;;;;9.73;8.32;;;15.10;99.90;;;;;;4922633;29;20093;-76
2022/10/05 03:38:12;;;;;;;;;;;15.10;99.90;;;;;;4928171;29;20065;-76
2022/10/05 03:41:16;;;;;;;10.68;8.88;;;15.00;99.90;;;;;;4930182;29;19929;-76
2022/10/05 03:44:36;;;;;;;9.07;7.80;;;15.00;99.90;;;;;;4919182;29;20051;-76
2022/10/05 03:47:07;;;;;;;10.27;8.75;;;15.00;99.90;;;;;;4849234;29;20081;-76
2022/10/05 03:49:55;;;;;;;9.93;8.90;;;15.00;99.90;;;;;;4917273;29;20071;-76
2022/10/05 03:52:33;;;;;;;9.73;8.77;;;15.00;99.90;;;;;;4927735;28;20083;-77
2022/10/05 03:55:05;;;;;;;9.55;8.52;;;15.00;99.90;;;;;;4925628;29;20162;-76
2022/10/05 03:57:38;;;;;;;10.27;8.50;;;15.00;99.90;;;;;;4911370;29;20831;-76
2022/10/05 04:00:06;;;;;;;12.02;9.93;;;15.00;99.90;;;;;;4915138;29;20046;-76
2022/10/05 04:02:35;;;;;;;11.30;8.80;;;15.00;99.90;;;;;;4923236;29;20106;-76
2022/10/05 04:05:13;;;;;;;12.32;9.25;;;15.00;99.90;;;;;;4931384;29;20059;-76
2022/10/05 04:07:58;;;;;;;10.10;9.02;;;15.00;99.90;;;;;;4914364;28;20079;-76
2022/10/05 04:10:32;;;;;;;10.25;9.13;;;15.00;99.90;;;;;;4932936;29;20059;-76
2022/10/05 04:13:05;;;;;;;11.60;8.93;;;15.00;99.90;;;;;;4938061;29;20055;-75
2022/10/05 04:16:06;;;;;;;10.75;8.35;;;15.00;99.90;;;;;;4929789;29;20074;-76
2022/10/05 04:19:02;;;;;;;13.15;9.23;;;15.00;99.90;;;;;;4925449;29;20121;-76
2022/10/05 04:21:45;;;;;;;11.55;9.57;;;15.00;99.90;;;;;;4933137;29;20079;-76
2022/10/05 04:24:18;;;;;;;13.30;9.07;;;15.00;99.90;;;;;;4931967;29;20046;-76
2022/10/05 04:27:28;;;;;;;12.02;10.13;;;15.00;99.90;;;;;;4930097;29;20078;-76
2022/10/05 04:29:57;;;;;;;;;;;15.00;99.90;;;;;;4946188;28;20719;-76
2022/10/05 04:32:53;;;;;;;10.57;9.43;;;15.00;99.90;;;;;;4918590;28;19922;-76
2022/10/05 04:35:25;;;;;;;11.00;9.82;;;14.90;99.90;;;;;;4913344;29;20147;-76
2022/10/05 04:37:56;;;;;;;13.35;9.63;;;14.90;99.90;;;;;;4916890;29;20105;-76
2022/10/05 04:41:02;;;;;;;11.50;10.13;;;14.90;99.90;;;;;;4935749;29;20069;-76
2022/10/05 04:43:39;;;;;;;11.27;9.50;;;15.00;99.90;;;;;;4935497;29;20503;-76
2022/10/05 04:46:28;;;;;;;13.23;10.18;;;14.90;99.90;;;;;;4928446;29;20043;-76
2022/10/05 04:49:22;;;;;;;10.70;9.60;;;15.00;99.90;;;;;;4920535;29;20601;-76
2022/10/05 04:52:06;;;;;;;11.25;9.65;;;14.90;99.90;;;;;;4879326;29;20051;-76
2022/10/05 04:54:38;;;;;;;10.00;9.00;;;14.90;99.90;;;;;;4929523;29;20047;-76
2022/10/05 04:57:27;;;;;;;10.70;9.60;;;14.90;99.90;;;;;;4934535;28;20052;-77
2022/10/05 05:00:05;;;;;;;11.63;9.75;;;14.90;99.90;;;;;;4940731;28;20089;-76
2022/10/05 05:02:30;;;;;;;12.95;9.88;;;14.90;99.90;;;;;;4929431;29;20055;-76
2022/10/05 05:05:15;;;;;;;11.05;9.82;;;14.90;99.90;;;;;;4927352;29;20042;-76
2022/10/05 05:08:25;;;;;;;10.93;9.82;;;14.90;99.90;;;;;;4927772;28;20075;-76
2022/10/05 05:10:54;;;;;;;9.93;8.88;;;14.90;99.90;;;;;;4913902;28;20561;-78
2022/10/05 05:13:52;;;;;;;10.75;9.65;;;14.90;99.90;;;;;;4920942;29;20502;-76
2022/10/05 05:16:32;;;;;;;11.15;9.35;;;14.90;99.90;;;;;;4891948;29;20063;-76
2022/10/05 05:19:23;;;;;;;10.88;9.70;;;14.90;99.90;;;;;;4920829;29;20055;-77
2022/10/05 05:22:26;;;;;;;11.65;9.55;;;14.90;99.90;;;;;;4912267;29;20799;-76
2022/10/05 05:25:03;;;;;;;12.45;10.25;;;14.90;99.90;;;;;;4926639;29;20070;-76
2022/10/05 05:27:42;;;;;;;11.00;9.40;;;14.90;99.90;;;;;;4924704;28;20058;-76
2022/10/05 05:30:36;;;;;;;10.45;9.25;;;14.80;99.90;;;;;;4923167;29;20347;-77
2022/10/05 05:33:26;;;;;;;11.80;10.50;;;14.80;99.90;;;;;;4930064;29;21167;-76
2022/10/05 05:36:08;;;;;;;11.32;9.55;;;14.80;99.90;;;;;;4912468;28;20086;-75
2022/10/05 05:38:33;;;;;;;11.23;9.63;;;14.80;99.90;;;;;;4925400;29;20098;-75
2022/10/05 05:41:19;;;;;;;11.35;10.25;;;14.80;99.90;;;;;;4923758;28;20051;-76
2022/10/05 05:43:57;;;;;;;11.40;10.18;;;14.80;99.90;;;;;;4917502;29;20118;-76
2022/10/05 05:46:36;;;;;;;12.32;10.25;;;14.80;99.90;;;;;;4924492;29;20047;-76
2022/10/05 05:49:30;;;;;;;11.50;10.18;;;14.80;99.90;;;;;;4923094;28;20054;-76
2022/10/05 05:52:30;;;;;;;13.52;10.80;;;14.80;99.90;;;;;;4926587;29;20043;-76
2022/10/05 05:55:05;;;;;;;12.10;10.70;;;14.80;99.90;;;;;;4939022;28;20121;-76
2022/10/05 05:57:37;;;;;;;12.75;10.48;;;14.80;99.90;;;;;;4925263;29;20070;-76
2022/10/05 06:00:48;;;;;;;13.90;11.60;;;14.80;99.90;;;;;;4923638;29;20047;-76
2022/10/05 06:03:29;;;;;;;15.82;11.48;;;14.80;99.90;;;;;;4910356;29;20182;-76
2022/10/05 06:06:10;;;;;;;12.93;11.07;;;14.80;99.90;;;;;;4923102;28;20082;-76
2022/10/05 06:08:38;;;;;;;12.48;11.18;;;14.80;99.90;;;;;;4929247;29;20043;-76
2022/10/05 06:11:29;;;;;;;14.18;11.23;;;14.70;99.90;;;;;;4924656;28;20423;-76
2022/10/05 06:14:00;;;;;;;13.82;11.63;;;14.70;99.90;;;;;;4927656;29;20827;-77
2022/10/05 06:16:39;;;;;;;11.40;10.30;;;14.70;99.90;;;;;;4923760;29;20051;-76
2022/10/05 06:19:15;;;;;;;11.68;10.48;;;14.70;99.90;;;;;;4921134;28;20074;-77
2022/10/05 06:21:43;;;;;;;11.88;10.65;;;14.80;99.90;;;;;;4927442;29;20047;-76
2022/10/05 06:24:25;;;;;;;12.18;10.95;;;14.70;99.90;;;;;;4929110;28;20062;-76
2022/10/05 06:27:24;;;;;;;12.82;10.75;;;14.80;99.90;;;;;;4911699;29;20058;-76
2022/10/05 06:29:49;;;;;;;12.70;11.20;;;14.80;99.90;;;;;;4927099;29;20043;-76
2022/10/05 06:32:41;;;;;;;11.57;10.27;;;14.80;99.90;;;;;;4925302;28;20050;-76
2022/10/05 06:35:10;;;;;;;11.48;10.23;;;14.80;99.90;;;;;;4922085;29;20138;-76
2022/10/05 06:38:07;;;;;;;12.20;10.98;;;14.80;99.90;;;;;;4923585;29;20043;-76
2022/10/05 06:40:57;;;;;;;11.73;10.52;;;14.80;99.90;;;;;;4928623;29;20040;-76
2022/10/05 06:43:26;;;;;;;11.48;10.38;;;14.80;99.90;;;;;;4918071;29;20055;-76
2022/10/05 06:46:17;;;;;;;11.73;10.45;;;14.80;99.90;;;;;;4929054;29;20076;-76
2022/10/05 06:48:53;;;;;;;10.57;9.52;;;14.80;99.90;;;;;;4921089;29;20135;-76
2022/10/05 06:51:34;;;;;;;11.80;9.60;;;14.80;99.90;;;;;;4921957;29;20066;-76
2022/10/05 06:54:25;;;;;;;9.93;8.98;;;14.80;99.90;;;;;;4926744;29;20139;-76
2022/10/05 06:57:10;;;;;;;11.25;9.35;;;14.90;99.90;;;;;;4929685;28;20422;-76
2022/10/05 06:59:53;;;;;;;9.75;8.75;;;14.90;99.90;;;;;;4934438;28;20047;-76
2022/10/05 07:02:53;;;;;;;10.88;8.88;;;14.90;99.90;;;;;;4942537;28;20054;-77
2022/10/05 07:05:43;;;;;;;10.07;9.07;;;14.90;99.90;;;;;;4925060;29;20066;-76
2022/10/05 07:08:37;;;;;;;10.52;9.48;;;14.90;99.90;;;;;;4929467;28;20155;-76
2022/10/05 07:11:02;;;;;;;9.57;8.57;;;14.90;99.90;;;;;;4923124;29;20035;-77
2022/10/05 07:13:53;;;;;;;10.52;8.73;;;14.90;99.90;;;;;;4909714;29;20462;-76
2022/10/05 07:16:38;;;;;;;9.00;8.10;;;14.90;99.90;;;;;;4925479;28;20054;-76
2022/10/05 07:19:09;;;;;;;8.50;7.70;;;14.90;99.90;;;;;;4921692;29;20272;-76
2022/10/05 07:21:59;;;;;;;8.60;7.20;;;14.90;99.90;;;;;;4908031;29;20050;-76
2022/10/05 07:24:32;;;;;;;8.30;7.50;;;15.00;99.90;;;;;;4926021;29;20143;-76
2022/10/05 07:27:19;;;;;;;8.35;7.45;;;15.00;99.90;;;;;;4928161;29;20124;-76
2022/10/05 07:30:06;;;;;;;7.85;6.85;;;15.00;99.90;;;;;;4926729;29;20545;-76
2022/10/05 07:32:58;;;;;;;7.88;7.07;;;15.00;99.90;;;;;;4922352;29;20047;-75
2022/10/05 07:38:31;;;;;;;7.82;6.45;;;15.00;99.90;;;;;;4924954;29;20052;-77
2022/10/05 07:41:30;;;;;;;7.07;6.38;;;15.10;99.90;;;;;;4915732;29;20055;-77
2022/10/05 07:44:18;;;;;;;6.70;5.80;;;15.10;99.90;;;;;;4930821;29;20414;-77
2022/10/05 07:46:52;;;;;;;7.40;6.70;;;15.10;99.90;;;;;;4927895;29;20039;-77
2022/10/05 07:49:46;;;;;;;8.35;7.20;;;15.10;99.90;;;;;;4913518;29;20049;-77
2022/10/05 07:52:23;;;;;;;8.30;7.50;;;15.10;99.90;;;;;;4917458;29;20097;-77
2022/10/05 07:55:11;;;;;;;8.98;8.18;;;15.20;99.90;;;;;;4927779;29;20050;-77
2022/10/05 07:58:02;;;;;;;9.68;8.75;;;15.20;99.90;;;;;;4934362;29;20051;-77
2022/10/05 08:00:59;;;;;;;8.65;7.65;;;15.20;99.90;;;;;;4931771;29;20051;-77
2022/10/05 08:03:44;;;;;;;8.73;7.93;;;15.20;99.90;;;;;;4927848;29;20097;-77
2022/10/05 08:06:26;;;;;;;9.73;8.73;;;15.20;99.90;;;;;;4924827;29;20059;-77
2022/10/05 08:08:56;;;;;;;9.18;7.82;;;15.20;99.90;;;;;;4936089;29;20078;-77
2022/10/05 08:11:41;;;;;;;9.18;8.32;;;15.30;99.90;;;;;;4913813;29;20052;-77
2022/10/05 08:14:32;;;;;;;9.77;8.18;;;15.30;99.90;;;;;;4928481;28;20066;-77
2022/10/05 08:17:04;;;;;;;9.35;8.00;;;15.40;99.90;;;;;;4926398;29;20447;-77
2022/10/05 08:19:42;;;;;;;9.75;8.82;;;15.50;99.90;;;;;;4922393;29;20130;-77
2022/10/05 08:22:11;;;;;;;9.90;8.55;;;15.50;99.90;;;;;;4914680;28;20058;-78
2022/10/05 08:24:58;;;;;;;9.73;8.33;;;15.60;99.90;;;;;;4930308;28;20121;-78
2022/10/05 08:27:33;;;;;;;9.77;8.82;;;15.60;99.90;;;;;;4941783;28;20130;-77
2022/10/05 08:30:03;;;;;;;9.20;8.30;;;15.70;99.90;;;;;;4928713;29;20076;-77
2022/10/05 08:33:06;;;;;;;9.73;8.25;;;15.70;99.90;;;;;;4924666;29;20051;-78
2022/10/05 08:35:44;;;;;;;9.38;7.97;;;15.80;99.90;;;;;;4927949;29;20043;-77
2022/10/05 08:38:15;;;;;;;8.80;7.90;;;15.80;99.90;;;;;;4914761;29;20494;-77
2022/10/05 08:41:02;;;;;;;9.40;8.23;;;15.80;99.90;;;;;;4912634;29;20060;-77
2022/10/05 08:43:47;;;;;;;9.23;8.20;;;15.90;99.90;;;;;;4932458;29;20087;-77
2022/10/05 08:46:28;;;;;;;9.52;8.48;;;15.90;99.90;;;;;;4928027;28;20062;-77
2022/10/05 08:49:44;;;;;;;8.82;7.93;;;15.90;99.90;;;;;;4941872;28;20043;-77
2022/10/05 08:52:23;;;;;;;9.98;8.18;;;15.90;99.90;;;;;;4890739;29;20044;-78
2022/10/05 08:54:57;;;;;;;8.90;7.95;;;16.00;99.90;;;;;;4889659;29;20052;-77
2022/10/05 08:57:29;;;;;;;9.23;8.27;;;16.00;99.90;;;;;;4912468;29;20063;-76
2022/10/05 09:00:11;;;;;;;10.00;8.27;;;16.00;99.90;;;;;;4928989;29;20126;-76
2022/10/05 09:03:05;;;;;;;9.55;7.95;;;16.00;99.90;;;;;;4955146;28;20094;-76
2022/10/05 09:05:49;;;;;;;8.65;7.82;;;16.00;99.90;;;;;;4925276;29;20059;-76
2022/10/05 09:09:08;;;;;;;8.40;7.60;;;16.00;99.90;;;;;;4925082;29;20145;-76
2022/10/05 09:11:52;;;;;;;8.85;7.45;;;16.00;99.90;;;;;;4911818;29;20465;-77
2022/10/05 09:14:43;;;;;;;9.32;7.47;;;16.00;99.90;;;;;;4925824;29;20051;-79
2022/10/05 09:17:09;;;;;;;9.35;7.15;;;16.00;99.90;;;;;;4924590;29;20071;-76
2022/10/05 09:19:56;;;;;;;7.07;6.18;;;16.00;99.90;;;;;;4927219;29;20043;-76
2022/10/05 09:22:23;;;;;;;6.93;6.22;;;16.10;99.90;;;;;;4925254;29;20055;-76
2022/10/05 09:24:56;;;;;;;8.10;6.28;;;16.10;99.90;;;;;;4907777;29;20102;-76
2022/10/05 09:27:38;;;;;;;6.90;6.07;;;16.10;99.90;;;;;;4929646;29;20066;-76
2022/10/05 09:30:25;;;;;;;6.78;5.70;;;16.20;99.90;;;;;;4927809;29;20039;-76
2022/10/05 09:33:22;;;;;;;5.70;4.95;;;16.20;99.90;;;;;;4923341;29;20043;-76
2022/10/05 09:36:09;;;;;;;5.88;4.95;;;16.10;99.90;;;;;;4944301;28;20500;-76
2022/10/05 09:39:06;;;;;;;5.80;5.15;;;16.20;99.90;;;;;;4924165;28;20063;-76
2022/10/05 09:41:41;;;;;;;6.85;5.25;;;16.20;99.90;;;;;;4928167;29;20059;-76
2022/10/05 09:44:21;;;;;;;5.90;5.15;;;16.20;99.90;;;;;;4927447;29;20053;-77
2022/10/05 09:47:03;;;;;;;6.15;4.43;;;16.20;99.90;;;;;;4929137;28;20458;-76
2022/10/05 09:49:54;;;;;;;5.20;4.57;;;16.20;99.90;;;;;;4929770;29;20402;-76
2022/10/05 09:52:57;;;;;;;6.07;4.47;;;16.20;99.90;;;;;;4927196;29;20043;-76
2022/10/05 09:55:34;;;;;;;6.07;4.78;;;16.20;99.90;;;;;;4920249;29;20074;-76
2022/10/05 09:58:37;;;;;;;7.43;5.22;;;16.30;99.90;;;;;;4930089;29;20086;-76
2022/10/05 10:01:25;;;;;;;5.20;4.70;;;16.30;99.90;;;;;;4937111;29;20495;-76
2022/10/05 10:04:10;;;;;;;5.85;5.00;;;16.30;99.90;;;;;;4927490;29;20043;-76
2022/10/05 10:06:54;;;;;;;7.72;5.00;;;16.30;99.90;;;;;;4927553;29;20486;-76
2022/10/05 10:09:26;;;;;;;5.35;4.47;;;16.30;99.90;;;;;;4927587;29;20055;-76
2022/10/05 10:12:10;;;;;;;5.72;5.00;;;16.30;99.90;;;;;;4915275;29;20490;-77
2022/10/05 10:15:14;;;;;;;7.65;4.75;;;16.40;99.90;;;;;;4930683;29;20423;-77
2022/10/05 10:18:17;;;;;;;6.25;5.32;;;16.40;99.90;;;;;;4931311;29;20825;-75
2022/10/05 10:21:01;;;;;;;5.95;5.32;;;16.30;99.90;;;;;;4931930;29;20066;-76
2022/10/05 10:23:58;;;;;;;7.75;4.97;;;16.40;99.90;;;;;;4929635;29;20047;-76
2022/10/05 10:26:29;;;;;;;7.68;5.00;;;16.30;99.90;;;;;;4912529;29;20047;-76
2022/10/05 10:29:26;;;;;;;5.80;5.20;;;16.30;99.90;;;;;;4915419;29;20064;-76
2022/10/05 10:31:58;;;;;;;7.40;5.13;;;16.30;99.90;;;;;;4929830;29;20541;-77
2022/10/05 10:34:52;;;;;;;5.68;4.90;;;16.30;99.90;;;;;;4922056;29;20131;-77
2022/10/05 10:37:58;;;;;;;7.32;5.13;;;16.40;99.90;;;;;;4924639;29;20510;-76
2022/10/05 10:40:37;;;;;;;6.32;4.90;;;16.40;99.90;;;;;;4919724;28;20051;-77
2022/10/05 10:43:18;;;;;;;5.65;5.03;;;16.40;99.90;;;;;;4931015;29;20047;-76
2022/10/05 10:46:05;;;;;;;5.97;5.03;;;16.40;99.90;;;;;;4925843;29;20047;-76
2022/10/05 10:49:05;;;;;;;5.80;5.13;;;16.50;99.90;;;;;;4923911;28;20110;-76
2022/10/05 10:52:08;;;;;;;6.75;5.30;;;16.50;99.90;;;;;;4913154;29;20510;-76
2022/10/05 10:54:54;;;;;;;9.50;5.28;;;16.50;99.90;;;;;;4923952;29;20047;-77
2022/10/05 10:57:23;;;;;;;6.95;5.05;;;16.50;99.90;;;;;;4901712;29;20118;-77
2022/10/05 11:00:07;;;;;;;7.10;4.65;;;16.60;99.90;;;;;;4910969;29;20062;-77
2022/10/05 11:02:57;;;;;;;5.82;4.93;;;16.50;99.90;;;;;;4928134;29;20055;-77
2022/10/05 11:05:45;;;;;;;6.70;5.13;;;16.50;99.90;;;;;;4922660;29;20051;-77
2022/10/05 11:08:32;;;;;;;5.43;4.93;;;16.60;99.90;;;;;;4927322;29;20071;-76
2022/10/05 11:11:07;;;;;;;5.43;4.93;;;16.60;99.90;;;;;;4943821;28;20118;-77
2022/10/05 11:14:01;;;;;;;4.90;4.40;;;16.60;99.90;;;;;;4927966;29;20510;-77
2022/10/05 11:16:45;;;;;;;7.28;4.85;;;16.60;99.90;;;;;;4931616;29;20067;-77
2022/10/05 11:19:14;;;;;;;6.38;4.80;;;16.70;99.90;;;;;;4946490;28;20079;-77
2022/10/05 11:22:04;;;;;;;6.43;5.50;;;16.80;99.90;;;;;;4908463;29;20388;-77
2022/10/05 11:24:49;;;;;;;6.47;5.22;;;16.80;99.90;;;;;;4935646;29;20153;-77
2022/10/05 11:27:44;;;;;;;8.48;6.00;;;16.90;99.90;;;;;;4930074;29;20079;-77
2022/10/05 11:30:24;;;;;;;6.70;6.00;;;16.90;99.90;;;;;;4913489;28;20528;-77
2022/10/05 11:33:21;;;;;;;6.38;5.70;;;16.90;99.90;;;;;;4911483;29;20458;-77
2022/10/05 11:36:04;;;;;;;7.32;5.43;;;16.90;99.90;;;;;;4934268;29;20043;-77
2022/10/05 11:38:48;;;;;;;5.90;5.30;;;17.00;99.90;;;;;;4932559;28;20047;-77
2022/10/05 11:41:26;;;;;;;6.38;5.00;;;17.00;99.90;;;;;;4926105;29;20050;-77
2022/10/05 11:44:03;;;;;;;7.70;4.50;;;16.90;99.90;;;;;;4915534;29;20097;-77
2022/10/05 11:46:53;;;;;;;5.97;4.45;;;16.90;99.90;;;;;;4927029;28;20047;-77
2022/10/05 11:49:31;;;;;;;5.78;4.45;;;16.90;99.90;;;;;;4930766;29;20125;-77
2022/10/05 11:52:10;;;;;;;5.70;4.03;;;16.90;99.90;;;;;;4935769;29;20106;-77
2022/10/05 11:54:36;;;;;;;6.35;4.22;;;16.90;99.90;;;;;;4919327;28;20674;-77
2022/10/05 11:57:12;;;;;;;5.90;4.00;;;16.80;99.90;;;;;;4927547;29;20063;-77
2022/10/05 11:59:59;;;;;;;5.97;3.88;;;16.80;99.90;;;;;;4927376;28;20056;-77
2022/10/05 12:02:58;;;;;;;5.65;3.92;;;16.80;99.90;;;;;;4927212;29;20062;-77
2022/10/05 12:05:31;;;;;;;5.80;3.85;;;16.90;99.90;;;;;;4930174;29;20446;-77
2022/10/05 12:08:07;;;;;;;6.32;3.65;;;16.80;99.90;;;;;;4930965;29;20572;-77
2022/10/05 12:10:47;;;;;;;4.60;3.70;;;16.80;99.90;;;;;;4929914;29;20401;-77
2022/10/05 12:13:39;;;;;;;6.25;3.50;;;16.80;99.90;;;;;;4927407;29;20062;-77
2022/10/05 12:16:31;;;;;;;7.18;4.53;;;16.80;99.90;;;;;;4927083;29;20044;-77
2022/10/05 12:19:17;;;;;;;6.80;4.25;;;16.80;99.90;;;;;;4931697;29;20286;-77
2022/10/05 12:22:03;;;;;;;5.80;4.18;;;16.80;99.90;;;;;;4912652;29;20050;-77
2022/10/05 12:24:35;;;;;;;9.27;4.38;;;16.80;99.90;;;;;;4927311;29;20082;-76
2022/10/05 12:27:11;;;;;;;7.03;3.92;;;16.80;99.90;;;;;;4929471;28;20047;-77
2022/10/05 12:30:07;;;;;;;5.57;4.38;;;16.80;99.90;;;;;;4916158;29;20047;-77
2022/10/05 12:32:54;;;;;;;5.22;4.18;;;16.80;99.90;;;;;;4951114;28;20486;-77
2022/10/05 12:35:58;;;;;;;6.20;4.40;;;16.80;99.90;;;;;;4921303;29;20620;-77
2022/10/05 12:38:55;;;;;;;5.97;4.32;;;16.80;99.90;;;;;;4929528;28;20085;-77
2022/10/05 12:41:28;;;;;;;5.30;3.97;;;16.80;99.90;;;;;;4928607;29;20046;-76
2022/10/05 12:44:30;;;;;;;8.35;4.60;;;16.80;99.90;;;;;;4931222;29;20486;-77
2022/10/05 12:47:04;;;;;;;8.35;5.18;;;16.80;99.90;;;;;;4928421;29;20051;-77
2022/10/05 12:49:51;;;;;;;6.15;4.82;;;16.80;99.90;;;;;;4927575;29;20097;-76
2022/10/05 12:52:31;;;;;;;6.40;4.90;;;16.80;99.90;;;;;;4930112;29;20051;-77
2022/10/05 12:54:56;;;;;;;8.90;5.57;;;16.80;99.90;;;;;;4927147;28;20051;-77
2022/10/05 12:58:13;;;;;;;6.93;5.05;;;16.80;99.90;;;;;;4925479;29;20087;-76
2022/10/05 13:00:54;;;;;;;6.97;5.55;;;16.80;99.90;;;;;;4914280;29;20051;-77
2022/10/05 13:03:29;;;;;;;6.88;5.68;;;16.80;99.90;;;;;;4914902;29;20055;-76
2022/10/05 13:06:03;;;;;;;7.38;5.43;;;16.80;99.90;;;;;;4911210;28;20134;-77
2022/10/05 13:08:35;;;;;;;7.45;5.35;;;16.80;99.90;;;;;;4928255;29;20051;-77
2022/10/05 13:11:19;;;;;;;6.10;5.50;;;16.80;99.90;;;;;;4913358;28;20556;-77
2022/10/05 13:13:55;;;;;;;6.65;5.30;;;16.80;99.90;;;;;;4927919;29;20510;-78
2022/10/05 13:16:28;;;;;;;7.93;5.25;;;16.90;99.90;;;;;;4922844;28;20142;-77
2022/10/05 13:19:21;;;;;;;6.85;5.15;;;16.90;99.90;;;;;;4924675;29;20287;-77
2022/10/05 13:22:23;;;;;;;6.60;5.15;;;17.00;99.90;;;;;;4923569;29;20062;-78
2022/10/05 13:24:51;;;;;;;5.90;4.88;;;17.00;99.90;;;;;;4928244;28;20398;-77
2022/10/05 13:27:26;;;;;;;8.38;5.07;;;17.10;99.90;;;;;;4925121;29;20051;-77
2022/10/05 13:30:14;;;;;;;6.82;4.65;;;17.20;99.90;;;;;;4920163;28;20064;-77
2022/10/05 13:32:52;;;;;;;7.75;4.93;;;17.30;99.90;;;;;;4944158;28;20533;-76
2022/10/05 13:35:23;;;;;;;6.22;4.68;;;17.30;99.90;;;;;;4927219;29;20504;-77
2022/10/05 13:38:01;;;;;;;7.18;4.70;;;17.30;99.90;;;;;;4911909;29;20079;-77
2022/10/05 13:40:52;;;;;;;6.15;4.80;;;17.40;99.90;;;;;;4922093;29;20565;-77
2022/10/05 13:43:37;;;;;;;6.97;4.07;;;17.40;99.90;;;;;;4927334;29;20063;-77
2022/10/05 13:46:35;;;;;;;7.05;4.22;;;17.40;99.90;;;;;;4912635;29;20133;-78
2022/10/05 13:49:20;;;;;;;7.43;4.50;;;17.40;99.90;;;;;;4930629;29;20074;-77
2022/10/05 13:51:54;;;;;;;6.03;4.18;;;17.40;99.90;;;;;;4928001;29;20406;-77
2022/10/05 13:55:04;;;;;;;6.95;4.18;;;17.40;99.90;;;;;;5077476;27;20471;-76
2022/10/05 13:57:43;;;;;;;6.25;4.55;;;17.40;99.90;;;;;;5078069;28;20131;-78
2022/10/05 14:00:19;;;;;;;6.87;4.60;;;17.50;99.90;;;;;;5077280;28;20059;-77
2022/10/05 14:02:50;;;;;;;6.53;4.40;;;17.50;99.90;;;;;;5091112;28;20093;-77
2022/10/05 14:05:25;;;;;;;5.97;4.50;;;17.50;99.90;;;;;;5073380;28;20059;-77